ADDS METAR Data INFO
IDs: Format: Raw Decoded Include TAF

Data at: 2039 UTC 16 Dec 2017

KOSA 162035Z AUTO 16012G15KT 10SM CLR 15/M01 A3010 RMK AO1 T01451010
KOSA 162015Z AUTO 15007KT 10SM CLR 14/00 A3010 RMK AO1 T01411005
KOSA 161955Z AUTO 15008KT 10SM CLR 14/M01 A3011 RMK AO1 T01421011
KOSA 161935Z AUTO 16010G15KT 10SM CLR 15/M02 A3012 RMK AO1 T01461018
KOSA 161915Z AUTO 16010G14KT 10SM CLR 15/M01 A3012 RMK AO1 T01451014
KOSA 161855Z AUTO 18006KT 10SM CLR 16/M01 A3013 RMK AO1 T01591012
KOSA 161835Z AUTO 15009G14KT 10SM CLR 14/M01 A3014 RMK AO1 T01441009
KOSA 161815Z AUTO 17009G16KT 10SM CLR 15/M01 A3015 RMK AO1 T01461009
KOSA 161755Z AUTO 20007KT 10SM CLR 15/00 A3017 RMK AO1 T01461005 10147 21020
KOSA 161735Z AUTO 16009KT 10SM CLR 14/00 A3019 RMK AO1 T01380001
KOSA 161715Z AUTO 18009KT 10SM CLR 13/00 A3019 RMK AO1 T01331001
KOSA 161655Z AUTO 21007KT 10SM CLR 13/00 A3019 RMK AO1 T01260000
KOSA 161635Z AUTO 19006KT 10SM CLR 13/01 A3020 RMK AO1 T01250006
KOSA 161615Z AUTO 16003KT 10SM CLR 10/02 A3021 RMK AO1 T00990015
KOSA 161555Z AUTO 15003KT 10SM CLR 07/01 A3021 RMK AO1 T00690009
KOSA 161535Z AUTO 00000KT 10SM CLR 05/01 A3020 RMK AO1 T00510006
KOSA 161515Z AUTO 00000KT 10SM CLR 03/00 A3021 RMK AO1 T00321001
KOSA 161455Z AUTO 14003KT 10SM CLR 02/00 A3020 RMK AO1 T00241004
KOSA 161435Z AUTO 00000KT 10SM CLR 01/M01 A3020 RMK AO1 T00051015
KOSA 161415Z AUTO 00000KT 10SM CLR 00/M02 A3021 RMK AO1 T10021022
KOSA 161355Z AUTO 00000KT 10SM CLR M01/M03 A3021 RMK AO1 T10121031
KOSA 161335Z AUTO 00000KT 10SM CLR M02/M03 A3021 RMK AO1 T10171032
KOSA 161315Z AUTO 00000KT 10SM CLR M02/M03 A3021 RMK AO1 T10181032
KOSA 161255Z AUTO 00000KT 10SM CLR M01/M03 A3021 RMK AO1 T10151031
KOSA 161235Z AUTO 00000KT 10SM CLR M02/M03 A3021 RMK AO1 T10181032
KOSA 161215Z AUTO 00000KT 10SM CLR M02/M03 A3020 RMK AO1 T10181031
KOSA 161155Z AUTO 00000KT 10SM CLR M02/M03 A3020 RMK AO1 T10181033 11002 21020
KOSA 161135Z AUTO 10003KT 10SM CLR M02/M03 A3019 RMK AO1 T10161030
KOSA 161115Z AUTO 00000KT 10SM CLR M01/M03 A3020 RMK AO1 T10141030
KOSA 161055Z AUTO 11003KT 10SM CLR M01/M03 A3020 RMK AO1 T10151027
KOSA 161035Z AUTO 00000KT 10SM CLR M01/M03 A3020 RMK AO1 T10121027
KOSA 161015Z AUTO 00000KT 10SM CLR M01/M03 A3021 RMK AO1 T10101026
KOSA 160955Z AUTO 12003KT 10SM CLR M01/M03 A3020 RMK AO1 T10151027
KOSA 160935Z AUTO 00000KT 10SM CLR M01/M03 A3021 RMK AO1 T10151027
KOSA 160915Z AUTO 13003KT 10SM CLR M01/M03 A3021 RMK AO1 T10151027
KOSA 160855Z AUTO 13003KT 10SM CLR M02/M03 A3021 RMK AO1 T10191031
KOSA 160835Z AUTO 13003KT 10SM CLR M02/M03 A3021 RMK AO1 T10171030
KOSA 160815Z AUTO 12003KT 10SM CLR M01/M03 A3020 RMK AO1 T10101026
KOSA 160755Z AUTO 13003KT 10SM CLR M01/M02 A3021 RMK AO1 T10101025
KOSA 160735Z AUTO 13004KT 10SM CLR M01/M03 A3022 RMK AO1 T10131026
KOSA 160715Z AUTO 14003KT 10SM CLR M01/M02 A3022 RMK AO1 T10131025
KOSA 160655Z AUTO 14003KT 10SM CLR M01/M02 A3022 RMK AO1 T10111025
KOSA 160635Z AUTO 00000KT 10SM CLR 00/M02 A3022 RMK AO1 T10021022
KOSA 160615Z AUTO 13004KT 10SM CLR M01/M02 A3023 RMK AO1 T10131024
KOSA 160555Z AUTO 14004KT 10SM CLR M01/M02 A3024 RMK AO1 T10121025 10085 21012 401241028
KOSA 160535Z AUTO 00000KT 10SM CLR 00/M02 A3024 RMK AO1 T10051022
KOSA 160515Z AUTO 00000KT 10SM CLR 00/M02 A3024 RMK AO1 T00001020
KOSA 160455Z AUTO 00000KT 10SM CLR 00/M02 A3025 RMK AO1 T00001021
KOSA 160435Z AUTO 00000KT 10SM CLR 00/M02 A3025 RMK AO1 T00011019
KOSA 160415Z AUTO 14004KT 10SM CLR 00/M02 A3025 RMK AO1 T00001018
KOSA 160355Z AUTO 00000KT 10SM CLR 01/M02 A3024 RMK AO1 T00071017
KOSA 160335Z AUTO 00000KT 10SM CLR 01/M01 A3025 RMK AO1 T00081015
KOSA 160315Z AUTO 00000KT 10SM CLR 01/M02 A3024 RMK AO1 T00051021
KOSA 160255Z AUTO 00000KT 10SM CLR 03/M02 A3025 RMK AO1 T00291016
KOSA 160235Z AUTO 00000KT 10SM CLR 03/M01 A3025 RMK AO1 T00261015
KOSA 160215Z AUTO 00000KT 10SM CLR 01/M02 A3024 RMK AO1 T00141016
KOSA 160155Z AUTO 29003KT 10SM CLR 06/M01 A3024 RMK AO1 T00561015
KOSA 160135Z AUTO 00000KT 10SM CLR 05/M02 A3025 RMK AO1 T00471018
KOSA 160115Z AUTO 00000KT 10SM CLR 06/M02 A3025 RMK AO1 T00631017
KOSA 160055Z AUTO 00000KT 10SM CLR 06/M02 A3026 RMK AO1 T00611018
KOSA 160035Z AUTO 00000KT 10SM CLR 08/M02 A3025 RMK AO1 T00751020
KOSA 160015Z AUTO 00000KT 10SM CLR 08/M02 A3024 RMK AO1 T00821018
KOSA 152355Z AUTO 27003KT 10SM CLR 09/M02 A3024 RMK AO1 T00851017 10124 20082
KOSA 152335Z AUTO 28005KT 10SM CLR 09/M01 A3023 RMK AO1 T00891015
KOSA 152315Z AUTO 31005KT 10SM CLR 10/M02 A3023 RMK AO1 T00961016
KOSA 152255Z AUTO 30004KT 10SM CLR 11/M02 A3023 RMK AO1 T01051018
KOSA 152235Z AUTO 27004KT 10SM CLR 11/M01 A3022 RMK AO1 T01111015
KOSA 152215Z AUTO 30004KT 10SM CLR 12/M01 A3023 RMK AO1 T01151011
KOSA 152155Z AUTO 29007KT 10SM CLR 11/M02 A3023 RMK AO1 T01121016
KOSA 152135Z AUTO 31007KT 10SM CLR 11/M01 A3023 RMK AO1 T01141010
KOSA 152115Z AUTO 26005KT 10SM CLR 12/00 A3022 RMK AO1 T01151005
KOSA 152055Z AUTO 29005KT 10SM CLR 12/M01 A3023 RMK AO1 T01151012
KOSA 152035Z AUTO 25003KT 10SM CLR 12/00 A3023 RMK AO1 T01201001
KOSA 152015Z AUTO 26006KT 10SM CLR 12/00 A3024 RMK AO1 T01191001
KOSA 151955Z AUTO 32005KT 10SM CLR 11/M01 A3024 RMK AO1 T01111009
KOSA 151935Z AUTO 30005KT 10SM CLR 12/00 A3025 RMK AO1 T01161002
KOSA 151915Z AUTO 33007KT 300V360 10SM CLR 11/01 A3026 RMK AO1 T01100006
KOSA 151855Z AUTO 30006KT 10SM CLR 12/01 A3026 RMK AO1 T01150011
KOSA 151835Z AUTO 28008KT 10SM CLR 11/01 A3028 RMK AO1 T01080010
KOSA 151815Z AUTO 31005KT 10SM CLR 10/01 A3029 RMK AO1 T01020008
KOSA 151755Z AUTO 25003KT 10SM CLR 10/01 A3029 RMK AO1 T00990005 10100 21028
KOSA 151735Z AUTO 00000KT 10SM CLR 09/00 A3030 RMK AO1 T00920003
KOSA 151715Z AUTO 32007KT 10SM CLR 08/01 A3031 RMK AO1 T00840006
KOSA 151655Z AUTO 28007KT 10SM CLR 08/00 A3031 RMK AO1 T00800004
KOSA 151635Z AUTO 31005KT 10SM CLR 08/01 A3032 RMK AO1 T00760005
KOSA 151615Z AUTO 32004KT 10SM CLR 07/00 A3032 RMK AO1 T00670002
KOSA 151555Z AUTO 30006KT 10SM CLR 05/00 A3031 RMK AO1 T00530000
KOSA 151535Z AUTO 30004KT 10SM CLR 04/00 A3031 RMK AO1 T00410000
KOSA 151515Z AUTO 00000KT 10SM CLR 01/M01 A3031 RMK AO1 T00071009
KOSA 151455Z AUTO 00000KT 10SM CLR M01/M02 A3030 RMK AO1 T10081018
KOSA 151435Z AUTO 00000KT 10SM CLR M02/M03 A3029 RMK AO1 T10171026
KOSA 151415Z AUTO 00000KT 10SM CLR M03/M04 A3029 RMK AO1 T10271036
KOSA 151355Z AUTO 00000KT 10SM CLR M01/M03 A3029 RMK AO1 T10121031
KOSA 151335Z AUTO 31003KT 10SM CLR M01/M03 A3028 RMK AO1 T10121030
KOSA 151315Z AUTO 00000KT 10SM CLR M01/M02 A3028 RMK AO1 T10121023
KOSA 151255Z AUTO 00000KT 10SM CLR M01/M03 A3028 RMK AO1 T10061027
KOSA 151235Z AUTO 00000KT 10SM CLR M01/M02 A3028 RMK AO1 T10071022
KOSA 151215Z AUTO 00000KT 10SM CLR M01/M02 A3027 RMK AO1 T10071024
KOSA 151155Z AUTO 00000KT 10SM CLR 00/M02 A3026 RMK AO1 T00001022 10053 21005
KOSA 151135Z AUTO 00000KT 10SM CLR 00/M02 A3026 RMK AO1 T00001023
KOSA 151115Z AUTO 00000KT 10SM CLR 00/M02 A3025 RMK AO1 T10031025
KOSA 151055Z AUTO 00000KT 10SM CLR 01/M02 A3025 RMK AO1 T00081021
KOSA 151035Z AUTO 34003KT 10SM CLR 01/M02 A3025 RMK AO1 T00101021
KOSA 151015Z AUTO 33004KT 10SM CLR 01/M02 A3024 RMK AO1 T00141017
KOSA 150955Z AUTO 33003KT 10SM CLR 00/M02 A3024 RMK AO1 T00001021
KOSA 150935Z AUTO 33003KT 10SM CLR 02/M02 A3025 RMK AO1 T00171021
KOSA 150915Z AUTO 32003KT 10SM CLR 03/M02 A3024 RMK AO1 T00251020
KOSA 150855Z AUTO 32003KT 10SM CLR 02/M02 A3023 RMK AO1 T00241021